createdAt,value
2022-12-04T07:00:16.353Z,87.87
2022-12-04T07:02:44.199Z,87.78
2022-12-04T07:05:12.064Z,87.81
2022-12-04T07:07:39.903Z,87.97
2022-12-04T07:10:08.286Z,88.02
2022-12-04T07:12:36.046Z,87.95
2022-12-04T07:15:04.092Z,88.09
2022-12-04T07:17:31.879Z,87.76
2022-12-04T07:19:59.640Z,87.95
2022-12-04T07:22:27.403Z,88.14
2022-12-04T07:24:55.136Z,88.12
2022-12-04T07:27:22.840Z,88.08
2022-12-04T07:29:53.272Z,87.89
2022-12-04T07:32:21.096Z,88.06
2022-12-04T07:34:48.800Z,87.88
2022-12-04T07:37:16.515Z,88.11
2022-12-04T07:39:44.522Z,88.04
2022-12-04T07:42:12.274Z,88.07
2022-12-04T07:44:39.963Z,88.10
2022-12-04T07:47:07.804Z,88.00
2022-12-04T07:49:35.636Z,87.94
2022-12-04T07:52:03.451Z,88.04
2022-12-04T07:54:31.698Z,88.00
2022-12-04T07:56:59.474Z,88.22
2022-12-04T07:59:27.143Z,88.11
2022-12-04T08:01:55.397Z,88.28
2022-12-04T08:04:23.392Z,88.12
2022-12-04T08:06:51.150Z,87.82
2022-12-04T08:09:18.898Z,88.02
2022-12-04T08:11:46.663Z,87.96
2022-12-04T08:14:15.038Z,88.14
2022-12-04T08:16:48.190Z,88.16
2022-12-04T08:19:18.861Z,88.09
2022-12-04T08:21:46.623Z,88.08
2022-12-04T08:24:14.687Z,87.96
2022-12-04T08:26:42.868Z,88.05
2022-12-04T08:29:11.240Z,88.03
2022-12-04T08:31:39.243Z,87.67
2022-12-04T08:34:07.782Z,87.97
2022-12-04T08:36:36.033Z,87.82
2022-12-04T08:39:04.686Z,88.10
2022-12-04T08:41:32.941Z,87.76
2022-12-04T08:44:01.139Z,87.89
2022-12-04T08:46:29.428Z,87.61
2022-12-04T08:48:58.004Z,87.99
2022-12-04T08:51:31.398Z,87.92
2022-12-04T08:54:03.626Z,87.65
2022-12-04T08:56:32.670Z,87.89
2022-12-04T08:59:01.461Z,87.90
2022-12-04T09:01:29.859Z,87.91
2022-12-04T09:03:58.321Z,87.78
2022-12-04T09:06:26.223Z,87.75
2022-12-04T09:08:55.974Z,87.70
2022-12-04T09:11:27.694Z,87.74
2022-12-04T09:13:56.101Z,87.89
2022-12-04T09:16:25.889Z,87.74
2022-12-04T09:18:54.599Z,87.73
2022-12-04T09:21:24.364Z,87.89
2022-12-04T09:23:52.159Z,87.84
2022-12-04T09:26:31.781Z,87.60
2022-12-04T09:29:01.955Z,87.58
2022-12-04T09:31:30.589Z,87.53
2022-12-04T09:33:59.576Z,87.68
2022-12-04T09:36:28.258Z,87.62
2022-12-04T09:38:57.873Z,87.53
2022-12-04T09:41:37.433Z,87.73
2022-12-04T09:44:27.889Z,87.49
2022-12-04T09:47:00.879Z,87.37
2022-12-04T09:49:47.825Z,87.52
2022-12-04T09:52:57.446Z,87.44
2022-12-04T09:55:45.811Z,87.30
2022-12-04T09:58:17.883Z,87.41
2022-12-04T10:00:50.126Z,87.30
2022-12-04T10:03:20.629Z,87.28
2022-12-04T10:06:04.415Z,87.26
2022-12-04T10:08:39.627Z,87.05
2022-12-04T10:11:31.987Z,87.00
2022-12-04T10:14:26.675Z,87.02
2022-12-04T10:17:45.623Z,87.16
2022-12-04T10:20:22.784Z,87.23
2022-12-04T10:23:13.892Z,86.97
2022-12-04T10:25:43.850Z,87.05
2022-12-04T10:28:23.798Z,87.12
2022-12-04T10:30:55.443Z,86.90
2022-12-04T10:33:37.021Z,87.11
2022-12-04T10:36:06.169Z,87.03
2022-12-04T10:38:49.646Z,86.98
2022-12-04T10:41:34.569Z,86.93
2022-12-04T10:44:02.724Z,86.92
2022-12-04T10:46:33.826Z,86.95
2022-12-04T10:49:19.002Z,86.66
2022-12-04T10:51:57.221Z,86.98
2022-12-04T10:54:40.749Z,86.92
2022-12-04T10:57:16.470Z,86.78
2022-12-04T10:59:57.481Z,86.57
2022-12-04T11:02:33.173Z,86.60
2022-12-04T11:05:05.272Z,86.59
2022-12-04T11:07:46.034Z,86.79
2022-12-04T11:10:32.879Z,86.80
2022-12-04T11:13:07.794Z,86.63
2022-12-04T11:15:46.976Z,86.53
2022-12-04T11:18:22.589Z,86.55
2022-12-04T11:21:15.956Z,86.44
2022-12-04T11:23:50.769Z,86.41
2022-12-04T11:26:34.547Z,86.48
2022-12-04T11:29:05.401Z,86.40
2022-12-04T11:31:34.611Z,86.41
2022-12-04T11:34:07.923Z,86.60
2022-12-04T11:36:41.288Z,86.37
2022-12-04T11:39:18.024Z,86.35
2022-12-04T11:41:46.317Z,86.13
2022-12-04T11:44:26.437Z,86.10
2022-12-04T11:46:57.049Z,86.18
2022-12-04T11:49:26.564Z,86.26
2022-12-04T11:52:20.910Z,85.95
2022-12-04T11:54:48.597Z,86.16
2022-12-04T11:57:28.324Z,86.18
2022-12-04T12:00:28.806Z,86.17
2022-12-04T12:03:25.496Z,86.07
2022-12-04T12:06:15.104Z,86.01
2022-12-04T12:08:45.553Z,86.04
2022-12-04T12:11:20.146Z,85.96
2022-12-04T12:14:06.864Z,86.00
2022-12-04T12:17:02.169Z,86.08
2022-12-04T12:19:33.110Z,85.87
2022-12-04T12:22:05.518Z,86.05
2022-12-04T12:24:42.836Z,86.06
2022-12-04T12:27:48.147Z,85.99
2022-12-04T12:30:21.420Z,86.21
2022-12-04T12:33:01.372Z,86.10
2022-12-04T12:35:51.849Z,86.13
2022-12-04T12:38:25.353Z,86.20
2022-12-04T12:41:01.841Z,86.08
2022-12-04T12:43:33.030Z,86.04
2022-12-04T12:46:10.411Z,86.17
2022-12-04T12:48:58.092Z,86.20
2022-12-04T12:51:30.973Z,86.13
2022-12-04T12:54:12.355Z,86.15
2022-12-04T12:56:49.599Z,86.09
2022-12-04T12:59:22.663Z,86.10
2022-12-04T13:02:00.994Z,85.97
2022-12-04T13:04:38.925Z,86.12
2022-12-04T13:07:18.906Z,86.01
2022-12-04T13:09:53.888Z,86.06
2022-12-04T13:12:23.928Z,85.91
2022-12-04T13:14:52.096Z,85.90
2022-12-04T13:17:40.444Z,85.91
2022-12-04T13:20:20.192Z,86.06
2022-12-04T13:22:55.640Z,85.96
2022-12-04T13:25:49.144Z,85.96
2022-12-04T13:28:36.652Z,86.25
2022-12-04T13:31:31.413Z,86.09
2022-12-04T13:34:05.160Z,86.13
2022-12-04T13:36:57.685Z,86.13
2022-12-04T13:40:17.580Z,85.93
2022-12-04T13:42:45.982Z,85.99
2022-12-04T13:45:32.085Z,86.05
2022-12-04T13:48:02.120Z,86.15
2022-12-04T13:50:35.732Z,86.14
2022-12-04T13:53:04.733Z,86.08
2022-12-04T13:55:38.063Z,86.09
2022-12-04T13:58:11.787Z,86.17
2022-12-04T14:00:43.027Z,86.05
2022-12-04T14:03:33.990Z,85.95
2022-12-04T14:06:05.529Z,85.96
2022-12-04T14:08:41.020Z,85.95
2022-12-04T14:11:18.565Z,85.99
2022-12-04T14:13:52.768Z,86.17
2022-12-04T14:16:42.294Z,85.96
2022-12-04T14:19:27.788Z,86.02
2022-12-04T14:21:55.911Z,86.14
2022-12-04T14:24:32.949Z,86.13
2022-12-04T14:27:11.774Z,85.89
2022-12-04T14:29:47.605Z,85.85
2022-12-04T14:32:32.177Z,85.98
2022-12-04T14:35:01.378Z,86.02
2022-12-04T14:37:40.734Z,85.85
2022-12-04T14:40:20.659Z,85.81
2022-12-04T14:42:50.214Z,85.73
2022-12-04T14:45:22.023Z,86.04
2022-12-04T14:47:52.857Z,85.92
2022-12-04T14:50:32.168Z,85.97
2022-12-04T14:53:15.509Z,85.83
2022-12-04T14:56:25.382Z,85.73
2022-12-04T14:58:53.513Z,85.85
2022-12-04T15:01:28.620Z,85.71
2022-12-04T15:04:05.363Z,85.83
2022-12-04T15:06:34.042Z,85.94
2022-12-04T15:09:22.998Z,85.97
2022-12-04T15:12:17.431Z,85.85
2022-12-04T15:14:48.019Z,85.74
2022-12-04T15:17:17.676Z,85.96
2022-12-04T15:19:46.079Z,85.92
2022-12-04T15:22:26.609Z,85.76
2022-12-04T15:24:55.683Z,85.75
2022-12-04T15:27:31.908Z,85.77
2022-12-04T15:30:02.825Z,85.83
2022-12-04T15:32:32.121Z,85.75
2022-12-04T15:35:09.287Z,85.71
2022-12-04T15:37:38.037Z,85.67
2022-12-04T15:40:08.219Z,85.64
2022-12-04T15:42:36.013Z,85.66
2022-12-04T15:45:09.660Z,85.66
2022-12-04T15:47:39.058Z,85.80
2022-12-04T15:50:15.661Z,85.81
2022-12-04T15:52:56.319Z,85.72
2022-12-04T15:55:25.591Z,85.95
2022-12-04T15:57:59.883Z,85.70
2022-12-04T16:00:37.915Z,85.62
2022-12-04T16:03:21.615Z,85.77
2022-12-04T16:05:49.513Z,85.77
2022-12-04T16:08:32.870Z,85.74
2022-12-04T16:11:21.465Z,85.75
2022-12-04T16:14:03.264Z,85.85
2022-12-04T16:16:31.902Z,85.59
2022-12-04T16:19:05.711Z,85.73
2022-12-04T16:21:34.422Z,85.78
2022-12-04T16:24:03.476Z,85.79
2022-12-04T16:26:31.658Z,85.67
2022-12-04T16:28:59.664Z,85.64
2022-12-04T16:31:27.793Z,85.77
2022-12-04T16:33:55.814Z,85.65
2022-12-04T16:36:25.012Z,85.53
2022-12-04T16:38:53.438Z,85.60
2022-12-04T16:41:21.848Z,85.57
2022-12-04T16:43:56.130Z,85.41
2022-12-04T16:46:27.210Z,85.44
2022-12-04T16:48:55.938Z,85.45
2022-12-04T16:51:25.717Z,85.49
2022-12-04T16:53:54.636Z,85.42
2022-12-04T16:56:22.805Z,85.51
2022-12-04T16:58:50.841Z,85.57
2022-12-04T17:01:25.478Z,85.51
2022-12-04T17:03:53.442Z,85.40
2022-12-04T17:06:21.576Z,85.40
2022-12-04T17:08:49.335Z,85.33
2022-12-04T17:11:17.872Z,85.54
2022-12-04T17:13:45.870Z,85.63
2022-12-04T17:16:15.146Z,85.36
2022-12-04T17:18:44.647Z,85.37
2022-12-04T17:21:13.745Z,85.26
2022-12-04T17:23:42.831Z,85.51
2022-12-04T17:26:13.321Z,85.38
2022-12-04T17:28:42.299Z,85.36
2022-12-04T17:31:16.569Z,85.36
2022-12-04T17:33:44.973Z,85.31
2022-12-04T17:36:16.276Z,85.42
2022-12-04T17:38:44.728Z,85.40
2022-12-04T17:41:14.191Z,85.37
2022-12-04T17:43:43.356Z,85.42
2022-12-04T17:46:13.828Z,85.39
2022-12-04T17:48:41.787Z,85.38
2022-12-04T17:51:12.651Z,85.50
2022-12-04T17:53:41.183Z,85.38
2022-12-04T17:56:14.780Z,85.44
2022-12-04T17:58:42.735Z,85.40
2022-12-04T18:01:13.588Z,85.41
2022-12-04T18:03:47.267Z,85.45
2022-12-04T18:06:21.511Z,85.35
2022-12-04T18:08:50.558Z,85.33
2022-12-04T18:11:20.934Z,85.33
2022-12-04T18:13:53.373Z,85.56
2022-12-04T18:16:21.468Z,85.42
2022-12-04T18:18:50.833Z,85.37
2022-12-04T18:21:19.485Z,85.41
2022-12-04T18:23:47.389Z,85.38
2022-12-04T18:26:21.397Z,85.37
2022-12-04T18:28:49.933Z,85.45
2022-12-04T18:31:19.589Z,85.45
2022-12-04T18:33:47.776Z,85.26
2022-12-04T18:36:25.139Z,85.33
2022-12-04T18:38:55.726Z,85.55
2022-12-04T18:41:24.452Z,85.40
2022-12-04T18:43:53.264Z,85.40
2022-12-04T18:46:22.471Z,85.48
2022-12-04T18:48:53.863Z,85.38
2022-12-04T18:51:30.456Z,85.52
2022-12-04T18:54:05.084Z,85.63
2022-12-04T18:56:34.926Z,85.28
2022-12-04T18:59:11.060Z,85.29
2022-12-04T19:01:40.304Z,85.66
2022-12-04T19:04:10.680Z,85.43
2022-12-04T19:06:43.878Z,85.68
2022-12-04T19:09:14.735Z,85.62
2022-12-04T19:11:43.544Z,85.68
2022-12-04T19:14:22.438Z,85.52
2022-12-04T19:16:51.512Z,85.44
2022-12-04T19:19:19.815Z,85.37
2022-12-04T19:21:47.750Z,85.40
2022-12-04T19:24:15.666Z,85.52
2022-12-04T19:26:43.862Z,85.42
2022-12-04T19:29:14.033Z,85.47
2022-12-04T19:31:42.566Z,85.45
2022-12-04T19:34:10.520Z,85.34
2022-12-04T19:36:38.405Z,85.36
2022-12-04T19:39:07.331Z,85.60
2022-12-04T19:41:37.241Z,85.41
2022-12-04T19:44:20.002Z,85.43
2022-12-04T19:46:53.602Z,85.30
2022-12-04T19:49:21.633Z,85.43
2022-12-04T19:51:49.579Z,85.32
2022-12-04T19:54:17.878Z,85.31
2022-12-04T19:56:51.133Z,85.49
2022-12-04T19:59:20.462Z,85.40
2022-12-04T20:01:48.464Z,85.44
2022-12-04T20:04:16.588Z,85.33
2022-12-04T20:06:46.196Z,85.58
2022-12-04T20:09:18.770Z,85.32
2022-12-04T20:11:47.308Z,85.41
2022-12-04T20:14:15.467Z,85.33
2022-12-04T20:16:43.433Z,85.36
2022-12-04T20:19:14.956Z,85.34
2022-12-04T20:21:44.430Z,85.29
2022-12-04T20:24:15.281Z,85.38
2022-12-04T20:26:45.061Z,85.37
2022-12-04T20:29:15.312Z,85.44
2022-12-04T20:31:45.562Z,85.38
2022-12-04T20:34:17.191Z,85.18
2022-12-04T20:36:45.972Z,85.30
2022-12-04T20:39:15.581Z,85.28
2022-12-04T20:41:43.358Z,85.23
2022-12-04T20:44:14.922Z,85.21
2022-12-04T20:46:43.651Z,85.31
2022-12-04T20:49:20.764Z,85.52
2022-12-04T20:51:52.063Z,85.11
2022-12-04T20:54:22.568Z,85.46
2022-12-04T20:56:53.079Z,85.20
2022-12-04T20:59:23.319Z,85.19
2022-12-04T21:01:52.149Z,85.42
2022-12-04T21:04:20.637Z,85.33
2022-12-04T21:06:48.597Z,85.37
2022-12-04T21:09:22.837Z,85.31
2022-12-04T21:11:52.900Z,85.27
2022-12-04T21:14:41.901Z,85.39
2022-12-04T21:17:14.479Z,85.31
2022-12-04T21:19:42.820Z,85.16
2022-12-04T21:22:10.741Z,85.27
2022-12-04T21:24:39.272Z,85.23
2022-12-04T21:27:09.389Z,85.08
2022-12-04T21:29:38.740Z,85.12
2022-12-04T21:32:07.275Z,85.19
2022-12-04T21:34:35.451Z,84.93
2022-12-04T21:37:03.715Z,85.19
2022-12-04T21:39:34.916Z,85.05
2022-12-04T21:42:21.538Z,85.19
2022-12-04T21:44:49.381Z,85.19
2022-12-04T21:47:17.353Z,85.22
2022-12-04T21:49:45.624Z,85.13
2022-12-04T21:52:15.882Z,85.15
2022-12-04T21:54:43.786Z,85.10
2022-12-04T21:57:11.575Z,84.95
2022-12-04T21:59:39.303Z,85.06
